Time;durP1;ratioP1;P1;durP2;ratioP2;P2;SDS_P1;SDS_P2;PMS_P1;PMS_P2;Temp;Humidity;BMP_temperature;BMP_pressure;BME280_temperature;BME280_humidity;BME280_pressure;Samples;Min_cycle;Max_cycle;Signal;HPM_P1;HPM_P2
2021/11/19 00:01:10;;;;;;;3.27;1.60;;;5.00;98.00;;;;;;5098080;28;20457;-68
2021/11/19 00:03:37;;;;;;;1.30;1.20;;;4.90;98.00;;;;;;5098308;28;20509;-68
2021/11/19 00:06:04;;;;;;;1.20;1.10;;;4.80;98.00;;;;;;5098349;28;20849;-68
2021/11/19 00:08:33;;;;;;;1.20;1.10;;;4.80;98.00;;;;;;5098201;28;20447;-68
2021/11/19 00:11:03;;;;;;;2.00;1.87;;;4.60;98.00;;;;;;5098254;28;20570;-68
2021/11/19 00:13:31;;;;;;;1.20;1.00;;;4.60;98.00;;;;;;5098198;28;20476;-69
2021/11/19 00:16:00;;;;;;;1.20;1.03;;;4.70;98.00;;;;;;5097751;28;20452;-68
2021/11/19 00:18:27;;;;;;;1.50;1.40;;;4.70;98.00;;;;;;5098068;28;20483;-69
2021/11/19 00:20:55;;;;;;;1.40;1.40;;;4.70;98.00;;;;;;5097718;28;20487;-68
2021/11/19 00:23:23;;;;;;;4.00;1.40;;;4.60;98.00;;;;;;5097954;28;20509;-68
2021/11/19 00:25:52;;;;;;;2.07;1.70;;;4.70;98.00;;;;;;5097344;28;20509;-69
2021/11/19 00:28:20;;;;;;;1.47;1.37;;;4.70;98.00;;;;;;5097962;28;20513;-68
2021/11/19 00:30:47;;;;;;;2.37;1.37;;;4.60;98.00;;;;;;5097198;28;20448;-68
2021/11/19 00:33:17;;;;;;;1.70;1.50;;;4.60;98.00;;;;;;5093689;28;20580;-68
2021/11/19 00:35:46;;;;;;;3.43;2.67;;;4.60;98.00;;;;;;5093894;28;20837;-68
2021/11/19 00:38:16;;;;;;;1.30;1.23;;;4.60;98.00;;;;;;5093754;28;20485;-68
2021/11/19 00:40:48;;;;;;;1.70;1.20;;;4.60;98.00;;;;;;5094337;28;20513;-68
2021/11/19 00:43:16;;;;;;;1.70;1.20;;;4.50;98.00;;;;;;5094670;28;20489;-68
2021/11/19 00:45:44;;;;;;;1.50;1.40;;;4.50;98.00;;;;;;5094519;28;20492;-68
2021/11/19 00:48:13;;;;;;;1.70;1.20;;;4.60;98.00;;;;;;5094270;28;20484;-68
2021/11/19 00:50:44;;;;;;;1.50;1.23;;;4.80;98.00;;;;;;5094500;28;20920;-68
2021/11/19 00:53:12;;;;;;;3.30;3.10;;;4.80;98.00;;;;;;5094361;28;20479;-68
2021/11/19 00:55:39;;;;;;;2.37;1.57;;;4.60;98.00;;;;;;5094302;28;20503;-69
2021/11/19 00:58:07;;;;;;;1.20;1.10;;;4.50;98.00;;;;;;5094147;28;20545;-68
2021/11/19 01:00:40;;;;;;;3.23;2.10;;;4.60;98.00;;;;;;5094278;28;20457;-68
2021/11/19 01:03:07;;;;;;;3.47;1.87;;;4.70;98.00;;;;;;5094023;28;20936;-68
2021/11/19 01:05:42;;;;;;;1.60;1.20;;;4.70;98.00;;;;;;5094048;28;20530;-68
2021/11/19 01:08:10;;;;;;;3.47;1.50;;;4.80;98.00;;;;;;5093936;28;20518;-68
2021/11/19 01:10:39;;;;;;;1.20;1.10;;;4.70;98.00;;;;;;5094109;28;20507;-68
2021/11/19 01:13:08;;;;;;;2.20;1.53;;;4.90;98.00;;;;;;5092697;28;20494;-68
2021/11/19 01:15:40;;;;;;;1.20;1.10;;;4.90;98.00;;;;;;5094081;28;20448;-69
2021/11/19 01:18:11;;;;;;;1.30;1.20;;;4.60;98.00;;;;;;5093792;28;20522;-68
2021/11/19 01:20:42;;;;;;;1.83;1.40;;;4.50;98.00;;;;;;5094050;28;20465;-69
2021/11/19 01:23:12;;;;;;;1.30;1.10;;;4.30;98.00;;;;;;5094175;28;20484;-68
2021/11/19 01:25:47;;;;;;;1.30;1.17;;;4.20;98.00;;;;;;5093880;28;20498;-68
2021/11/19 01:28:14;;;;;;;1.37;1.30;;;4.20;98.00;;;;;;5093682;28;20505;-69
2021/11/19 01:30:45;;;;;;;1.83;1.30;;;4.30;98.00;;;;;;5093529;28;20484;-68
2021/11/19 01:33:13;;;;;;;1.37;1.33;;;4.30;98.00;;;;;;5093564;28;20453;-67
2021/11/19 01:35:41;;;;;;;2.80;1.30;;;4.20;98.00;;;;;;5093351;28;20460;-68
2021/11/19 01:38:09;;;;;;;1.43;1.30;;;4.30;98.00;;;;;;5093105;28;20487;-68
2021/11/19 01:40:40;;;;;;;1.40;1.30;;;4.20;98.00;;;;;;5093534;28;20452;-68
2021/11/19 01:43:10;;;;;;;1.60;1.57;;;4.20;98.00;;;;;;5092155;28;20482;-68
2021/11/19 01:45:40;;;;;;;1.30;1.20;;;4.10;98.00;;;;;;5093163;28;20452;-68
2021/11/19 01:48:11;;;;;;;2.50;1.53;;;4.00;98.00;;;;;;5092693;28;20506;-68
2021/11/19 01:50:42;;;;;;;1.57;1.33;;;4.00;98.00;;;;;;5093285;28;20525;-68
2021/11/19 01:53:15;;;;;;;1.40;1.17;;;4.20;98.00;;;;;;5093013;28;20517;-68
2021/11/19 01:55:45;;;;;;;1.77;1.40;;;4.20;98.00;;;;;;5093164;28;20460;-68
2021/11/19 01:58:16;;;;;;;1.37;1.33;;;4.20;98.00;;;;;;5092986;28;20573;-68
2021/11/19 02:00:49;;;;;;;3.93;1.60;;;4.20;98.00;;;;;;5093008;28;20447;-68
2021/11/19 02:03:21;;;;;;;1.20;1.20;;;4.10;98.00;;;;;;5092736;28;20494;-68
2021/11/19 02:06:05;;;;;;;1.30;1.10;;;4.00;98.00;;;;;;5092902;28;20448;-68
2021/11/19 02:08:36;;;;;;;1.20;1.10;;;4.00;98.00;;;;;;5092998;28;20945;-68
2021/11/19 02:11:23;;;;;;;1.20;1.10;;;4.00;98.00;;;;;;5092947;28;20878;-68
2021/11/19 02:13:57;;;;;;;2.27;1.50;;;4.20;98.00;;;;;;5092876;28;20463;-68
2021/11/19 02:16:26;;;;;;;1.60;1.50;;;4.20;98.00;;;;;;5092632;28;20496;-69
2021/11/19 02:18:59;;;;;;;1.30;1.20;;;4.20;98.00;;;;;;5092809;28;20480;-68
2021/11/19 02:21:31;;;;;;;1.20;1.00;;;4.10;98.00;;;;;;5092814;28;20536;-69
2021/11/19 02:24:03;;;;;;;2.63;1.83;;;4.00;98.00;;;;;;5091418;28;20449;-69
2021/11/19 02:26:35;;;;;;;1.20;1.03;;;4.00;98.00;;;;;;5092764;28;20874;-68
2021/11/19 02:29:03;;;;;;;1.70;1.60;;;4.20;98.00;;;;;;5091495;28;20494;-68
2021/11/19 02:31:34;;;;;;;2.60;2.40;;;4.10;98.00;;;;;;5092526;28;20459;-68
2021/11/19 02:34:06;;;;;;;1.87;1.17;;;3.90;98.00;;;;;;5092743;28;20455;-68
2021/11/19 02:36:39;;;;;;;2.90;1.30;;;3.80;98.00;;;;;;5092735;28;20490;-68
2021/11/19 02:39:09;;;;;;;1.57;1.17;;;3.80;98.00;;;;;;5092279;28;20541;-68
2021/11/19 02:41:45;;;;;;;1.20;1.07;;;3.60;98.00;;;;;;5092527;28;20495;-68
2021/11/19 02:44:15;;;;;;;2.90;1.73;;;3.70;98.00;;;;;;5092354;28;20463;-68
2021/11/19 02:46:46;;;;;;;1.20;1.00;;;3.60;98.00;;;;;;5091915;28;20463;-68
2021/11/19 02:49:16;;;;;;;1.20;1.00;;;3.60;98.00;;;;;;5092286;28;20528;-68
2021/11/19 02:51:44;;;;;;;1.30;1.10;;;3.60;98.00;;;;;;5091871;28;20455;-68
2021/11/19 02:54:14;;;;;;;1.90;1.57;;;3.60;98.00;;;;;;5091619;28;20496;-68
2021/11/19 02:56:41;;;;;;;2.00;1.40;;;3.60;98.00;;;;;;5092139;28;20520;-68
2021/11/19 02:59:10;;;;;;;1.80;1.53;;;3.60;98.00;;;;;;5091956;28;20563;-68
2021/11/19 03:01:39;;;;;;;3.70;1.80;;;3.60;98.00;;;;;;5091830;28;20448;-68
2021/11/19 03:04:12;;;;;;;1.20;1.13;;;3.50;98.00;;;;;;5092118;28;20702;-68
2021/11/19 03:06:45;;;;;;;2.30;1.70;;;3.50;98.00;;;;;;5091026;28;20459;-68
2021/11/19 03:09:13;;;;;;;1.30;1.20;;;3.50;98.00;;;;;;5091901;28;20460;-68
2021/11/19 03:11:42;;;;;;;1.20;1.00;;;3.50;98.00;;;;;;5091880;28;20459;-68
2021/11/19 03:14:11;;;;;;;1.33;1.10;;;3.50;98.00;;;;;;5091598;28;20516;-68
2021/11/19 03:16:40;;;;;;;3.37;1.43;;;3.60;98.00;;;;;;5091699;28;20496;-68
2021/11/19 03:19:08;;;;;;;2.53;1.77;;;3.50;98.00;;;;;;5091526;28;20589;-68
2021/11/19 03:21:36;;;;;;;1.40;1.20;;;3.60;98.00;;;;;;5091613;28;20517;-68
2021/11/19 03:24:06;;;;;;;1.43;1.20;;;3.50;98.00;;;;;;5091782;28;20509;-68
2021/11/19 03:26:34;;;;;;;2.43;1.83;;;3.40;98.00;;;;;;5091708;28;20521;-68
2021/11/19 03:29:03;;;;;;;1.53;1.40;;;3.40;98.00;;;;;;5091850;28;20460;-68
2021/11/19 03:31:31;;;;;;;1.40;1.20;;;3.50;98.00;;;;;;5091718;28;20464;-68
2021/11/19 03:33:58;;;;;;;4.60;1.43;;;3.60;98.00;;;;;;5091886;28;20471;-68
2021/11/19 03:36:27;;;;;;;1.20;1.10;;;3.60;98.00;;;;;;5091852;28;20501;-68
2021/11/19 03:38:58;;;;;;;2.83;1.40;;;3.70;98.00;;;;;;5091774;28;20537;-68
2021/11/19 03:41:32;;;;;;;1.77;1.10;;;3.70;98.00;;;;;;5091722;28;20518;-67
2021/11/19 03:44:04;;;;;;;1.50;1.40;;;3.60;98.00;;;;;;5091920;28;20456;-68
2021/11/19 03:46:34;;;;;;;2.20;1.63;;;3.70;98.00;;;;;;5091728;28;20537;-68
2021/11/19 03:49:01;;;;;;;1.20;1.10;;;3.60;98.00;;;;;;5091823;28;20452;-68
2021/11/19 03:51:32;;;;;;;1.73;1.37;;;3.40;98.00;;;;;;5090527;28;20521;-68
2021/11/19 03:53:59;;;;;;;1.90;1.20;;;3.20;98.00;;;;;;5091472;28;21017;-68
2021/11/19 03:56:28;;;;;;;1.63;1.20;;;3.30;98.00;;;;;;5091626;28;20449;-68
2021/11/19 03:58:55;;;;;;;1.30;1.20;;;3.30;98.00;;;;;;5091221;28;20479;-68
2021/11/19 04:01:26;;;;;;;1.50;1.43;;;3.20;98.00;;;;;;5091338;28;20474;-68
2021/11/19 04:03:56;;;;;;;2.33;1.50;;;3.30;98.00;;;;;;5091518;28;20513;-68
2021/11/19 04:06:24;;;;;;;1.57;1.43;;;3.40;98.00;;;;;;5091513;28;20520;-68
2021/11/19 04:08:54;;;;;;;1.80;1.40;;;3.60;98.00;;;;;;5095213;28;20460;-68
2021/11/19 04:11:22;;;;;;;1.97;1.60;;;3.70;98.00;;;;;;5095217;28;20500;-68
2021/11/19 04:13:51;;;;;;;1.40;1.40;;;3.70;98.00;;;;;;5094786;28;20464;-68
2021/11/19 04:16:21;;;;;;;1.50;1.30;;;3.50;98.00;;;;;;5094993;28;20502;-68
2021/11/19 04:18:48;;;;;;;1.20;1.20;;;3.40;98.00;;;;;;5093752;28;20511;-68
2021/11/19 04:21:16;;;;;;;1.30;1.27;;;3.40;98.00;;;;;;5094841;28;20451;-68
2021/11/19 04:23:47;;;;;;;1.40;1.17;;;3.20;98.00;;;;;;5094865;28;20487;-68
2021/11/19 04:26:15;;;;;;;1.53;1.47;;;3.10;98.00;;;;;;5094832;28;20512;-68
2021/11/19 04:28:43;;;;;;;3.23;1.87;;;2.90;98.00;;;;;;5094889;28;20513;-69
2021/11/19 04:31:11;;;;;;;1.20;1.07;;;2.90;98.00;;;;;;5094819;28;20456;-68
2021/11/19 04:33:39;;;;;;;3.60;2.00;;;2.90;98.00;;;;;;5094802;28;20456;-68
2021/11/19 04:36:07;;;;;;;1.20;1.10;;;2.90;98.00;;;;;;5094589;28;20455;-68
2021/11/19 04:38:34;;;;;;;1.50;1.30;;;2.80;98.00;;;;;;5094615;28;20491;-68
2021/11/19 04:41:04;;;;;;;1.30;1.10;;;2.70;98.00;;;;;;5094615;28;20511;-68
2021/11/19 04:43:31;;;;;;;1.20;1.20;;;2.70;98.00;;;;;;5094712;28;20447;-68
2021/11/19 04:45:59;;;;;;;4.00;1.63;;;2.70;98.00;;;;;;5094494;28;20458;-68
2021/11/19 04:48:31;;;;;;;1.40;1.13;;;2.80;98.00;;;;;;5094495;28;20505;-69
2021/11/19 04:50:59;;;;;;;2.30;1.60;;;2.90;98.00;;;;;;5093513;28;20453;-68
2021/11/19 04:53:27;;;;;;;1.30;1.20;;;3.00;98.00;;;;;;5094483;28;20491;-68
2021/11/19 04:55:55;;;;;;;1.20;1.07;;;3.00;98.00;;;;;;5094420;28;20458;-68
2021/11/19 04:58:23;;;;;;;1.20;1.10;;;3.10;98.00;;;;;;5094369;28;20460;-68
2021/11/19 05:00:55;;;;;;;1.47;1.40;;;3.10;98.00;;;;;;5094453;28;20882;-68
2021/11/19 05:03:22;;;;;;;1.20;1.00;;;3.00;98.00;;;;;;5094245;28;20509;-68
2021/11/19 05:05:52;;;;;;;1.30;1.23;;;3.00;98.00;;;;;;5094479;28;20459;-68
2021/11/19 05:08:19;;;;;;;1.20;1.00;;;3.10;98.00;;;;;;5094128;28;20529;-68
2021/11/19 05:10:47;;;;;;;1.20;1.00;;;3.00;98.00;;;;;;5094219;28;20456;-68
2021/11/19 05:13:15;;;;;;;1.47;1.30;;;3.00;98.00;;;;;;5093732;28;20540;-68
2021/11/19 05:15:47;;;;;;;1.60;1.20;;;3.00;98.00;;;;;;5094049;28;20506;-68
2021/11/19 05:18:14;;;;;;;1.83;1.27;;;3.10;98.00;;;;;;5093472;28;20495;-68
2021/11/19 05:20:42;;;;;;;1.20;1.10;;;3.10;98.00;;;;;;5093700;28;20882;-68
2021/11/19 05:23:10;;;;;;;1.20;1.10;;;3.20;98.00;;;;;;5093564;28;20494;-67
2021/11/19 05:25:40;;;;;;;1.20;1.10;;;3.30;98.00;;;;;;5093857;28;20467;-68
2021/11/19 05:28:08;;;;;;;1.90;1.10;;;3.30;98.00;;;;;;5093506;28;20480;-68
2021/11/19 05:30:35;;;;;;;1.30;1.20;;;3.20;98.00;;;;;;5093279;28;20487;-67
2021/11/19 05:33:04;;;;;;;1.60;1.43;;;3.20;98.00;;;;;;5093475;28;20809;-68
2021/11/19 05:35:31;;;;;;;1.60;1.50;;;3.20;98.00;;;;;;5093508;28;20480;-68
2021/11/19 05:37:59;;;;;;;1.20;1.00;;;3.20;98.00;;;;;;5093464;28;20521;-68
2021/11/19 05:40:27;;;;;;;4.67;2.20;;;3.10;98.00;;;;;;5092986;28;21176;-68
2021/11/19 05:42:55;;;;;;;1.53;1.10;;;3.00;98.00;;;;;;5093243;28;20500;-68
2021/11/19 05:45:25;;;;;;;1.20;1.10;;;3.00;98.00;;;;;;5093402;28;20440;-68
2021/11/19 05:47:52;;;;;;;2.37;1.20;;;2.90;98.00;;;;;;5093428;28;20458;-68
2021/11/19 05:50:23;;;;;;;2.33;1.50;;;2.90;98.00;;;;;;5093127;28;20525;-68
2021/11/19 05:52:52;;;;;;;1.30;1.23;;;2.90;98.00;;;;;;5092233;28;20823;-68
2021/11/19 05:55:21;;;;;;;1.60;1.20;;;2.90;98.00;;;;;;5092459;28;20535;-68
2021/11/19 05:57:49;;;;;;;1.20;1.20;;;2.70;98.00;;;;;;5092542;28;20460;-68
2021/11/19 06:00:20;;;;;;;1.67;1.43;;;2.60;98.00;;;;;;5093205;28;20564;-68
2021/11/19 06:02:48;;;;;;;2.07;1.67;;;2.60;98.00;;;;;;5092998;28;20486;-68
2021/11/19 06:05:16;;;;;;;1.83;1.73;;;2.60;98.00;;;;;;5093170;28;20452;-68
2021/11/19 06:07:43;;;;;;;2.00;1.57;;;2.80;98.00;;;;;;5093040;28;20505;-68
2021/11/19 06:10:11;;;;;;;3.10;1.87;;;2.90;98.00;;;;;;5093037;28;20480;-68
2021/11/19 06:12:43;;;;;;;1.20;1.00;;;3.10;98.00;;;;;;5092586;28;20452;-68
2021/11/19 06:15:16;;;;;;;1.63;1.17;;;3.20;98.00;;;;;;5092841;28;20464;-68
2021/11/19 06:17:47;;;;;;;1.60;1.23;;;3.40;98.00;;;;;;5092915;28;20444;-68
2021/11/19 06:20:17;;;;;;;1.60;1.07;;;3.30;98.00;;;;;;5092973;28;20480;-68
2021/11/19 06:22:47;;;;;;;7.03;1.83;;;3.30;98.00;;;;;;5092874;28;20505;-68
2021/11/19 06:25:18;;;;;;;1.47;1.40;;;3.30;98.00;;;;;;5092915;28;20455;-68
2021/11/19 06:27:46;;;;;;;2.00;1.90;;;3.20;98.00;;;;;;5092489;28;20487;-68
2021/11/19 06:30:15;;;;;;;2.70;1.30;;;3.10;98.00;;;;;;5091830;28;20456;-68
2021/11/19 06:32:43;;;;;;;1.40;1.30;;;3.10;98.00;;;;;;5092572;28;20491;-68
2021/11/19 06:35:12;;;;;;;1.20;1.00;;;3.10;98.00;;;;;;5092249;28;20513;-68
2021/11/19 06:37:39;;;;;;;1.20;1.00;;;3.10;98.00;;;;;;5091533;28;20951;-68
2021/11/19 06:40:10;;;;;;;5.03;1.63;;;3.00;98.00;;;;;;5092271;28;20519;-68
2021/11/19 06:42:37;;;;;;;1.20;0.93;;;3.00;98.00;;;;;;5092193;28;20970;-68
2021/11/19 06:45:05;;;;;;;1.20;1.10;;;3.00;98.00;;;;;;5092186;28;20464;-68
2021/11/19 06:47:34;;;;;;;1.20;1.00;;;3.00;98.00;;;;;;5092210;28;20456;-68
2021/11/19 06:50:01;;;;;;;1.30;1.10;;;3.10;98.00;;;;;;5092278;28;20456;-68
2021/11/19 06:52:29;;;;;;;2.77;2.60;;;3.20;98.00;;;;;;5091490;28;20460;-68
2021/11/19 06:54:56;;;;;;;3.30;2.93;;;3.20;98.00;;;;;;5092010;28;20468;-68
2021/11/19 06:57:23;;;;;;;1.50;1.40;;;3.20;98.00;;;;;;5091812;28;20516;-68
2021/11/19 06:59:50;;;;;;;1.77;1.30;;;3.40;98.00;;;;;;5092043;28;20533;-68
2021/11/19 07:02:17;;;;;;;1.20;1.03;;;3.50;98.00;;;;;;5092102;28;20479;-68
2021/11/19 07:04:46;;;;;;;1.40;1.20;;;3.60;98.00;;;;;;5092099;28;20591;-68
2021/11/19 07:07:14;;;;;;;1.50;1.10;;;3.80;98.00;;;;;;5091917;28;20496;-68
2021/11/19 07:09:42;;;;;;;1.20;1.07;;;3.90;98.00;;;;;;5091855;28;20544;-68
2021/11/19 07:12:11;;;;;;;1.30;1.23;;;3.90;98.00;;;;;;5092107;28;20894;-68
2021/11/19 07:14:39;;;;;;;1.60;1.57;;;3.90;98.00;;;;;;5091868;28;20877;-68
2021/11/19 07:17:08;;;;;;;1.20;1.00;;;4.00;98.00;;;;;;5091776;28;20492;-69
2021/11/19 07:19:36;;;;;;;2.80;1.80;;;4.00;98.00;;;;;;5091834;28;20970;-68
2021/11/19 07:22:09;;;;;;;1.30;1.30;;;4.00;98.00;;;;;;5091702;28;20982;-69
2021/11/19 07:24:38;;;;;;;1.20;1.00;;;4.10;98.00;;;;;;5089946;28;20444;-69
2021/11/19 07:27:06;;;;;;;1.50;1.40;;;4.20;98.00;;;;;;5091790;28;20541;-69
2021/11/19 07:29:35;;;;;;;1.60;1.20;;;4.30;98.00;;;;;;5091916;28;20456;-69
2021/11/19 07:32:02;;;;;;;3.60;1.23;;;4.40;98.00;;;;;;5091657;28;20452;-69
2021/11/19 07:34:29;;;;;;;1.87;1.40;;;4.50;98.00;;;;;;5092098;28;20537;-69
2021/11/19 07:36:57;;;;;;;1.23;1.13;;;4.50;98.00;;;;;;5091387;28;20455;-68
2021/11/19 07:39:26;;;;;;;1.20;1.00;;;4.60;98.00;;;;;;5091331;28;20493;-68
2021/11/19 07:41:56;;;;;;;1.20;1.00;;;4.70;98.00;;;;;;5093036;28;20453;-69
2021/11/19 07:44:24;;;;;;;1.20;1.17;;;4.70;98.00;;;;;;5095810;28;20509;-69
2021/11/19 07:46:51;;;;;;;1.20;1.00;;;4.60;98.00;;;;;;5095600;28;20594;-69
2021/11/19 07:49:18;;;;;;;1.43;1.03;;;4.50;98.00;;;;;;5095772;28;20460;-70
2021/11/19 07:51:47;;;;;;;1.20;1.10;;;4.60;98.00;;;;;;5095318;28;20490;-69
2021/11/19 07:54:17;;;;;;;1.20;1.00;;;4.60;98.00;;;;;;5095732;28;20858;-69
2021/11/19 07:56:46;;;;;;;1.20;1.00;;;4.60;98.00;;;;;;5095405;28;20459;-69
2021/11/19 07:59:15;;;;;;;1.57;1.20;;;4.60;98.00;;;;;;5095324;28;20484;-70
2021/11/19 08:01:43;;;;;;;1.70;1.60;;;4.60;98.00;;;;;;5095382;28;20561;-70
2021/11/19 08:04:10;;;;;;;1.83;1.27;;;4.60;98.00;;;;;;5095337;28;21090;-69
2021/11/19 08:06:39;;;;;;;3.40;1.60;;;4.70;98.00;;;;;;5095369;28;20521;-69
2021/11/19 08:09:07;;;;;;;1.77;1.40;;;4.60;98.00;;;;;;5094992;28;20540;-69
2021/11/19 08:11:34;;;;;;;2.17;1.50;;;4.60;98.00;;;;;;5095322;28;20539;-69
2021/11/19 08:14:03;;;;;;;1.30;1.20;;;4.70;98.00;;;;;;5094841;28;20468;-68
2021/11/19 08:16:37;;;;;;;1.40;1.40;;;4.80;98.00;;;;;;5094007;28;20448;-69
2021/11/19 08:19:07;;;;;;;1.50;1.37;;;4.80;98.00;;;;;;5095064;28;20492;-69
2021/11/19 08:21:34;;;;;;;2.43;1.50;;;4.80;98.00;;;;;;5094463;28;20578;-68
2021/11/19 08:24:04;;;;;;;1.60;1.43;;;4.90;98.00;;;;;;5094836;28;20517;-70
2021/11/19 08:26:37;;;;;;;1.80;1.33;;;5.00;98.00;;;;;;5097091;28;20463;-73
2021/11/19 08:29:08;;;;;;;1.70;1.27;;;5.10;98.00;;;;;;5107665;28;20448;-71
2021/11/19 08:31:35;;;;;;;1.40;1.40;;;5.20;98.00;;;;;;5102651;28;20963;-71
2021/11/19 08:34:02;;;;;;;2.30;1.37;;;5.00;98.00;;;;;;5093572;28;20517;-71
2021/11/19 08:36:32;;;;;;;2.07;1.60;;;5.00;98.00;;;;;;5102746;28;20947;-71
2021/11/19 08:39:01;;;;;;;2.07;1.73;;;5.00;98.00;;;;;;5093334;28;20512;-71
2021/11/19 08:41:28;;;;;;;1.70;1.50;;;5.10;98.00;;;;;;5093668;28;20496;-71
2021/11/19 08:43:58;;;;;;;3.10;2.90;;;5.20;98.00;;;;;;5103366;28;20534;-71
2021/11/19 08:46:31;;;;;;;2.03;1.50;;;5.40;98.00;;;;;;5096464;28;20530;-71
2021/11/19 08:48:59;;;;;;;1.30;1.10;;;5.40;98.00;;;;;;5107098;28;20521;-71
2021/11/19 08:51:35;;;;;;;1.40;1.10;;;5.50;98.00;;;;;;5100806;28;20509;-71
2021/11/19 08:54:05;;;;;;;3.80;2.90;;;5.60;98.00;;;;;;5099757;28;20531;-71
2021/11/19 08:56:33;;;;;;;1.30;1.20;;;5.70;98.00;;;;;;5101631;28;20460;-71
2021/11/19 08:59:01;;;;;;;1.83;1.43;;;5.60;98.00;;;;;;5093054;28;20456;-71
2021/11/19 09:01:31;;;;;;;2.50;1.63;;;5.70;98.00;;;;;;5092643;28;20488;-75
2021/11/19 09:03:57;;;;;;;1.83;1.60;;;5.70;98.00;;;;;;5098089;28;20456;-75
2021/11/19 09:06:25;;;;;;;1.20;1.03;;;5.90;98.00;;;;;;5105552;28;20856;-73
2021/11/19 09:08:52;;;;;;;2.23;2.03;;;6.00;98.00;;;;;;5104247;28;20449;-71
2021/11/19 09:11:22;;;;;;;1.83;1.20;;;6.10;98.00;;;;;;5096780;28;20501;-71
2021/11/19 09:13:50;;;;;;;1.60;1.30;;;6.30;98.00;;;;;;5092998;28;20530;-71
2021/11/19 09:16:21;;;;;;;2.73;1.70;;;6.50;98.00;;;;;;5097766;28;20446;-72
2021/11/19 09:19:08;;;;;;;1.67;1.60;;;6.60;98.00;;;;;;5096273;28;20545;-71
2021/11/19 09:21:40;;;;;;;1.20;1.10;;;6.70;98.00;;;;;;5101132;28;20499;-71
2021/11/19 09:24:14;;;;;;;1.30;1.27;;;6.70;98.00;;;;;;5109679;28;20553;-71
2021/11/19 09:26:44;;;;;;;1.80;1.37;;;6.60;98.00;;;;;;5099190;28;20542;-71
2021/11/19 09:29:15;;;;;;;1.20;1.20;;;6.60;98.00;;;;;;5110237;28;20518;-71
2021/11/19 09:31:46;;;;;;;2.90;1.77;;;6.60;98.00;;;;;;5101134;28;20459;-71
2021/11/19 09:34:17;;;;;;;1.87;1.77;;;6.40;98.00;;;;;;5092046;28;20484;-72
2021/11/19 09:36:44;;;;;;;1.20;1.10;;;6.40;98.00;;;;;;5100574;28;21174;-66
2021/11/19 09:39:14;;;;;;;1.67;1.30;;;6.40;98.00;;;;;;5109500;28;20453;-65
2021/11/19 09:41:57;;;;;;;1.67;1.57;;;7.40;98.00;;;;;;5093007;28;20555;-73
2021/11/19 09:45:06;;;;;;;2.03;1.73;;;7.60;98.00;;;;;;5108663;28;20475;-70
2021/11/19 09:48:03;;;;;;;1.60;1.33;;;7.60;98.00;;;;;;5100896;28;20541;-70
2021/11/19 09:51:17;;;;;;;1.40;1.10;;;7.50;98.00;;;;;;5086731;28;20513;-70
2021/11/19 09:54:20;;;;;;;2.00;1.60;;;7.20;98.00;;;;;;5109655;28;20513;-70
2021/11/19 09:57:40;;;;;;;1.30;1.20;;;7.30;98.00;;;;;;5097838;28;20461;-70
2021/11/19 10:00:16;;;;;;;1.20;1.10;;;7.30;98.00;;;;;;5107089;28;20463;-70
2021/11/19 10:03:31;;;;;;;1.97;1.53;;;7.60;98.00;;;;;;5085491;28;20515;-70
2021/11/19 10:06:03;;;;;;;2.20;1.80;;;7.90;98.00;;;;;;5028798;28;20506;-70
2021/11/19 10:08:59;;;;;;;1.73;1.43;;;7.60;98.00;;;;;;5094865;28;20459;-72
2021/11/19 10:11:35;;;;;;;1.40;1.30;;;7.30;98.00;;;;;;5073997;28;20506;-69
2021/11/19 10:14:20;;;;;;;1.53;1.43;;;7.30;98.00;;;;;;5096624;28;20467;-69
2021/11/19 10:17:09;;;;;;;1.33;1.27;;;7.40;98.00;;;;;;5091467;28;20457;-69
2021/11/19 10:19:39;;;;;;;2.60;1.60;;;7.60;98.00;;;;;;5092363;28;20460;-69
2021/11/19 10:22:15;;;;;;;1.30;1.30;;;7.70;98.00;;;;;;5099085;28;20495;-69
2021/11/19 10:24:50;;;;;;;1.57;1.17;;;7.90;98.00;;;;;;5099133;28;20507;-69
2021/11/19 10:27:24;;;;;;;1.20;1.20;;;7.90;98.00;;;;;;5100253;28;20461;-69
2021/11/19 10:29:55;;;;;;;1.20;1.10;;;8.00;98.00;;;;;;5083185;28;20513;-69
2021/11/19 10:32:25;;;;;;;1.40;1.13;;;7.90;98.00;;;;;;5098705;28;20522;-68
2021/11/19 10:35:12;;;;;;;3.70;1.73;;;8.00;98.00;;;;;;5100380;28;20466;-67
2021/11/19 10:38:07;;;;;;;1.20;1.10;;;8.10;98.00;;;;;;5104469;28;20496;-68
2021/11/19 10:41:17;;;;;;;1.30;1.27;;;8.00;98.00;;;;;;5107989;28;20885;-69
2021/11/19 10:44:16;;;;;;;1.33;1.30;;;7.80;98.00;;;;;;5086497;28;20864;-69
2021/11/19 10:47:17;;;;;;;2.90;1.10;;;7.80;98.00;;;;;;5084089;28;20471;-69
2021/11/19 10:50:17;;;;;;;2.10;1.57;;;7.70;98.00;;;;;;5082863;28;20451;-69
2021/11/19 10:53:20;;;;;;;1.60;1.50;;;7.80;98.00;;;;;;5105203;28;20458;-69
2021/11/19 10:56:23;;;;;;;1.37;1.13;;;7.80;98.00;;;;;;5093297;28;20548;-69
2021/11/19 10:58:54;;;;;;;1.40;1.30;;;8.00;98.00;;;;;;5104560;28;20457;-68
2021/11/19 11:01:33;;;;;;;1.30;1.10;;;8.10;98.00;;;;;;5108453;28;20538;-69
2021/11/19 11:04:08;;;;;;;1.67;1.50;;;8.20;98.00;;;;;;5101280;28;20453;-69
2021/11/19 11:06:45;;;;;;;1.47;1.43;;;8.20;98.00;;;;;;5098296;28;20468;-69
2021/11/19 11:09:26;;;;;;;1.20;1.10;;;8.20;98.00;;;;;;5089764;28;20888;-69
2021/11/19 11:12:08;;;;;;;2.20;1.30;;;8.20;98.00;;;;;;5084570;28;20464;-69
2021/11/19 11:14:36;;;;;;;1.20;1.00;;;8.10;98.00;;;;;;5102820;28;20496;-69
2021/11/19 11:17:23;;;;;;;1.57;1.57;;;8.00;98.00;;;;;;5081164;28;20450;-69
2021/11/19 11:19:53;;;;;;;1.20;1.20;;;7.90;98.00;;;;;;5101866;28;20546;-68
2021/11/19 11:22:25;;;;;;;1.43;1.33;;;7.80;98.00;;;;;;5095085;28;20495;-69
2021/11/19 11:24:55;;;;;;;1.30;1.30;;;7.90;98.00;;;;;;5093119;28;20452;-69
2021/11/19 11:27:53;;;;;;;1.30;1.30;;;8.10;98.00;;;;;;5106482;28;20464;-68
2021/11/19 11:30:22;;;;;;;1.73;1.50;;;8.10;98.00;;;;;;5085347;28;20847;-69
2021/11/19 11:33:13;;;;;;;6.30;1.97;;;7.90;98.00;;;;;;5107010;28;20464;-69
2021/11/19 11:35:47;;;;;;;1.20;1.17;;;8.10;98.00;;;;;;5088402;28;20455;-69
2021/11/19 11:38:47;;;;;;;1.20;1.10;;;8.20;98.00;;;;;;5095125;28;20512;-68
2021/11/19 11:41:22;;;;;;;1.20;1.00;;;8.30;98.00;;;;;;5098574;28;20472;-69
2021/11/19 11:44:13;;;;;;;1.50;1.40;;;8.10;98.00;;;;;;5107551;28;20562;-69
2021/11/19 11:46:54;;;;;;;2.03;1.17;;;8.00;98.00;;;;;;5093153;28;20618;-69
2021/11/19 11:49:49;;;;;;;1.20;1.10;;;7.90;98.00;;;;;;5103205;28;20483;-68
2021/11/19 11:52:45;;;;;;;1.53;1.27;;;7.90;98.00;;;;;;5093638;28;20457;-69
2021/11/19 11:55:25;;;;;;;1.40;1.30;;;7.80;98.00;;;;;;5091254;28;20491;-69
2021/11/19 11:58:15;;;;;;;1.20;1.10;;;7.80;98.00;;;;;;5102201;28;21127;-68
2021/11/19 12:00:55;;;;;;;1.63;1.60;;;7.70;98.00;;;;;;5101680;28;20509;-68
2021/11/19 12:03:31;;;;;;;1.67;1.10;;;7.90;98.00;;;;;;5106626;28;20454;-68
2021/11/19 12:06:05;;;;;;;1.57;1.53;;;8.00;98.00;;;;;;5099278;28;20458;-69
2021/11/19 12:08:57;;;;;;;1.93;1.83;;;8.00;98.00;;;;;;5098989;28;20461;-69
2021/11/19 12:11:43;;;;;;;3.83;1.50;;;8.00;98.00;;;;;;5095202;28;20499;-69
2021/11/19 12:14:21;;;;;;;5.63;2.20;;;8.00;98.00;;;;;;5100060;28;20557;-69
2021/11/19 12:16:59;;;;;;;1.43;1.30;;;7.90;98.00;;;;;;5098656;28;20459;-70
2021/11/19 12:19:33;;;;;;;3.20;1.57;;;7.90;98.00;;;;;;5106142;28;20876;-72
2021/11/19 12:22:05;;;;;;;1.20;1.20;;;8.00;98.00;;;;;;5098405;28;20551;-69
2021/11/19 12:24:36;;;;;;;1.20;1.10;;;8.00;98.00;;;;;;5098602;28;20494;-69
2021/11/19 12:27:33;;;;;;;1.67;1.33;;;8.00;98.00;;;;;;5099896;28;20455;-70
2021/11/19 12:30:12;;;;;;;1.20;1.00;;;8.10;98.00;;;;;;5111160;28;20459;-69
2021/11/19 12:32:43;;;;;;;1.50;1.20;;;8.10;98.00;;;;;;5096428;28;20801;-69
2021/11/19 12:35:17;;;;;;;1.97;1.30;;;8.00;98.00;;;;;;5107464;28;20953;-69
2021/11/19 12:37:53;;;;;;;1.43;1.30;;;8.00;98.00;;;;;;5096311;28;20490;-69
2021/11/19 12:40:34;;;;;;;2.27;2.10;;;8.10;98.00;;;;;;5093243;28;20588;-69
2021/11/19 12:43:12;;;;;;;1.90;1.30;;;8.20;98.00;;;;;;5101266;28;21084;-69
2021/11/19 12:45:45;;;;;;;1.47;1.27;;;8.10;98.00;;;;;;5110568;28;20855;-69
2021/11/19 12:48:34;;;;;;;1.20;1.10;;;8.10;98.00;;;;;;5093610;28;20970;-70
2021/11/19 12:51:18;;;;;;;1.20;1.20;;;8.10;98.00;;;;;;5105050;28;20452;-68
2021/11/19 12:54:03;;;;;;;1.20;1.00;;;8.10;98.00;;;;;;5106679;28;20516;-68
2021/11/19 12:57:00;;;;;;;1.83;1.37;;;8.40;98.00;;;;;;5112643;28;21093;-69
2021/11/19 12:59:51;;;;;;;1.20;1.20;;;8.30;98.00;;;;;;5114435;28;20458;-69
2021/11/19 13:02:32;;;;;;;1.63;1.10;;;8.30;98.00;;;;;;5114351;28;20483;-69
2021/11/19 13:05:18;;;;;;;2.03;1.60;;;8.20;98.00;;;;;;5114695;28;20460;-69
2021/11/19 13:08:08;;;;;;;1.50;1.30;;;8.20;98.00;;;;;;5114574;28;20459;-69
2021/11/19 13:10:42;;;;;;;1.70;1.53;;;8.10;98.00;;;;;;5114703;27;20454;-69
2021/11/19 13:13:32;;;;;;;1.47;1.43;;;8.20;98.00;;;;;;5114202;28;20470;-69
2021/11/19 13:16:34;;;;;;;3.07;2.27;;;8.20;98.00;;;;;;5114457;28;20459;-69
2021/11/19 13:19:04;;;;;;;1.20;1.20;;;8.30;98.00;;;;;;5081012;28;20500;-69
2021/11/19 13:21:49;;;;;;;1.20;1.07;;;8.30;98.00;;;;;;5114240;28;20480;-68
2021/11/19 13:24:46;;;;;;;2.07;1.60;;;8.30;98.00;;;;;;5114363;28;20961;-69
2021/11/19 13:27:52;;;;;;;2.43;1.57;;;8.30;98.00;;;;;;5114382;28;20542;-69
2021/11/19 13:30:42;;;;;;;1.30;1.20;;;8.20;98.00;;;;;;5114378;28;20524;-69